Date,TemperatureHighF,TemperatureAvgF,TemperatureLowF,DewpointHighF,DewpointAvgF,DewpointLowF,HumidityHigh,HumidityAvg,HumidityLow,PressureMaxIn,PressureMinIn,WindSpeedMaxMPH,WindSpeedAvgMPH,GustSpeedMaxMPH,PrecipitationSumIn
2013-1-1,30.0,18.9,5.0,26.0,14.9,2.0,95,85,65,0.00,40.00,9,4,22,0.00
2013-1-2,28.0,23.9,20.0,25.0,19.2,15.0,89,82,71,0.00,40.00,9,6,22,0.00
2013-1-3,35.0,19.8,7.0,17.0,10.1,4.0,91,69,37,0.00,40.00,6,3,12,0.00
2013-1-4,39.0,23.8,14.0,21.0,10.8,3.0,72,59,36,0.00,40.00,7,4,17,0.00
2013-1-5,39.0,27.1,15.0,27.0,18.4,10.0,89,70,49,0.00,40.00,6,4,18,0.00
2013-1-6,38.0,27.5,17.0,27.0,16.5,11.0,90,65,42,0.00,40.00,10,5,22,0.00
2013-1-7,40.0,30.0,23.0,27.0,20.5,15.0,82,68,47,0.00,40.00,8,4,16,0.00
2013-1-8,42.0,33.1,23.0,34.0,27.8,17.0,97,81,60,0.00,40.00,9,5,18,0.08
2013-1-9,46.0,33.4,21.0,33.0,22.4,14.0,81,65,51,0.00,40.00,7,4,14,0.03
2013-1-10,41.0,34.9,21.0,33.0,27.0,20.0,98,74,57,0.00,40.00,7,4,19,0.01
2013-1-11,22.0,13.0,3.0,21.0,10.1,-1.0,95,88,83,0.00,40.00,7,5,18,0.00
2013-1-12,12.0,2.9,-4.0,3.0,-2.6,-8.0,87,77,61,0.00,40.00,10,4,20,0.00
2013-1-13,15.0,4.2,-5.0,8.0,-0.4,-8.0,88,81,66,0.00,40.00,6,3,11,0.00
2013-1-14,18.0,10.2,0.0,13.0,5.0,-3.0,87,79,70,0.00,40.00,7,2,15,0.00
2013-1-15,39.0,28.0,12.0,31.0,23.0,5.0,93,82,69,0.00,40.00,13,8,25,0.05
2013-1-16,43.0,38.1,34.0,31.0,28.1,25.0,79,67,59,0.00,40.00,13,7,26,0.21
2013-1-17,45.0,35.9,28.0,31.0,26.0,21.0,97,69,46,0.00,40.00,7,4,15,0.01
2013-1-18,50.0,38.8,32.0,30.0,24.4,19.0,67,57,36,0.00,40.00,8,6,21,0.00
2013-1-19,38.0,24.5,13.0,28.0,17.3,6.0,80,73,67,0.00,40.00,8,4,19,0.00
2013-1-20,18.0,7.1,-7.0,14.0,-0.1,-16.0,88,72,54,0.00,40.00,8,4,18,0.00
2013-1-21,13.0,5.3,-4.0,5.0,-2.6,-13.0,82,69,54,0.00,40.00,4,2,13,0.00
2013-1-22,29.0,17.5,10.0,18.0,10.4,4.0,86,74,52,0.00,40.00,5,3,12,0.00
2013-1-23,14.0,11.0,4.0,11.0,3.9,0.0,87,73,58,0.00,40.00,10,5,19,0.00
2013-1-24,43.0,23.7,12.0,32.0,15.2,4.0,85,71,49,0.00,40.00,12,7,25,0.00
2013-1-25,47.0,30.1,18.0,33.0,21.9,13.0,94,73,45,0.00,40.00,6,3,12,0.00
2013-1-26,53.0,40.3,32.0,38.0,28.6,23.0,87,64,42,0.00,40.00,4,2,9,0.00
2013-1-27,37.0,32.7,28.0,32.0,28.5,24.0,98,85,69,0.00,40.00,5,3,13,0.00
2013-1-28,38.0,30.4,22.0,34.0,28.1,22.0,98,91,71,0.00,40.00,4,3,10,0.05
2013-1-29,31.0,14.8,-7.0,24.0,11.2,-11.0,98,86,66,0.00,40.00,10,4,26,0.01
2013-1-30,12.0,1.7,-7.0,3.0,-4.1,-11.0,84,77,61,0.00,40.00,6,2,12,0.00
2013-1-31,12.0,-2.1,-20.0,6.0,-11.4,-27.0,78,64,46,0.00,40.00,5,3,11,0.00
2013-2-1,36.0,26.2,12.0,34.0,22.1,6.0,98,85,69,0.00,40.00,8,4,16,0.05
2013-2-2,38.0,33.5,29.0,32.0,26.7,22.0,98,76,60,0.00,40.00,14,7,30,0.08
2013-2-3,43.0,33.6,20.0,30.0,24.4,14.0,94,70,49,0.00,40.00,7,4,16,0.01
2013-2-4,46.0,32.5,19.0,34.0,25.9,18.0,98,78,55,0.00,40.00,8,4,19,0.01
2013-2-5,43.0,34.2,27.0,31.0,25.3,20.0,88,70,49,0.00,40.00,7,4,17,0.00
2013-2-6,48.0,38.4,30.0,33.0,27.3,21.0,90,66,42,0.00,40.00,10,4,23,0.00
2013-2-7,49.0,35.1,28.0,31.0,23.3,19.0,90,64,37,0.00,40.00,5,3,10,0.00
2013-2-8,48.0,33.9,25.0,31.0,25.8,19.0,93,74,45,0.00,40.00,5,3,12,0.00
2013-2-9,42.0,30.1,19.0,28.0,24.0,18.0,98,80,51,0.00,40.00,5,1,7,0.00
2013-2-10,30.0,25.7,18.0,28.0,20.4,13.0,95,80,69,0.00,40.00,13,7,26,0.00
2013-2-11,38.0,24.5,14.0,21.0,15.3,8.0,89,70,44,0.00,40.00,7,4,21,0.00
2013-2-12,48.0,33.2,25.0,29.0,21.8,17.0,78,64,41,0.00,40.00,7,5,17,0.00
2013-2-13,45.0,37.2,31.0,32.0,25.6,18.0,74,63,51,0.00,40.00,11,8,31,0.00
2013-2-14,31.0,26.4,17.0,24.0,20.2,14.0,88,77,64,0.00,40.00,14,6,36,0.00
2013-2-15,40.0,27.0,15.0,21.0,15.6,9.0,88,65,40,0.00,40.00,7,3,16,0.02
2013-2-16,58.0,41.0,33.0,36.0,27.7,21.0,80,61,34,0.00,40.00,9,4,17,0.01
2013-2-17,45.0,35.5,27.0,34.0,27.9,21.0,98,75,49,0.00,40.00,12,7,32,0.00
2013-2-18,27.0,19.2,5.0,22.0,12.7,2.0,86,76,56,0.00,40.00,11,6,26,0.00
2013-2-19,21.0,9.8,-2.0,6.0,0.3,-6.0,85,66,46,0.00,40.00,15,8,31,0.00
2013-2-20,30.0,17.3,10.0,13.0,5.5,1.0,70,60,45,0.00,40.00,11,6,26,0.00
2013-2-21,31.0,22.3,12.0,22.0,15.6,9.0,94,76,59,0.00,40.00,5,3,11,0.00
2013-2-22,45.0,28.5,15.0,22.0,17.4,12.0,94,67,29,0.00,40.00,6,3,14,0.00
2013-2-23,48.0,35.5,27.0,28.0,19.9,13.0,72,54,32,0.00,40.00,5,4,17,0.00
2013-2-24,43.0,33.2,26.0,32.0,21.5,12.0,98,66,29,0.00,40.00,8,5,19,0.01
2013-2-25,50.0,35.4,26.0,23.0,17.5,12.0,72,51,26,0.00,40.00,9,5,19,0.01
2013-2-26,43.0,33.1,27.0,30.0,23.5,18.0,80,68,52,0.00,40.00,9,4,18,0.00
2013-2-27,33.0,28.0,21.0,25.0,22.8,20.0,96,81,70,0.00,40.00,7,4,16,0.00
2013-2-28,48.0,32.2,21.0,27.0,21.2,17.0,96,68,31,0.00,40.00,6,3,18,0.00
2013-3-1,47.0,33.4,20.0,32.0,23.1,15.0,97,70,33,0.00,40.00,8,3,14,0.00
2013-3-2,58.0,45.9,37.0,35.0,30.9,25.0,74,57,36,0.00,40.00,7,4,16,0.00
2013-3-3,54.0,43.0,33.0,48.0,33.3,26.0,99,70,46,0.00,40.00,9,4,26,0.05
2013-3-4,33.0,21.2,12.0,33.0,18.8,8.0,99,90,82,0.00,40.00,13,8,33,0.05
2013-3-5,26.0,16.4,9.0,15.0,9.5,-1.0,90,75,52,0.00,40.00,7,3,14,0.00
2013-3-6,31.0,22.9,14.0,24.0,17.2,11.0,88,79,66,0.00,40.00,12,7,21,0.00
2013-3-7,42.0,29.0,18.0,33.0,23.7,14.0,98,82,53,0.00,40.00,7,3,19,0.27
2013-3-8,38.0,29.5,23.0,32.0,26.8,22.0,98,90,69,0.00,40.00,9,4,14,0.08
2013-3-9,40.0,31.0,21.0,29.0,25.1,17.0,98,80,55,0.00,40.00,9,4,19,0.01
2013-3-10,46.0,29.9,12.0,24.0,17.2,9.0,95,64,32,0.00,40.00,6,3,11,0.00
2013-3-11,38.0,33.9,22.0,26.0,21.3,15.0,75,60,43,0.00,40.00,13,8,30,0.00
2013-3-12,41.0,26.3,14.0,20.0,12.8,8.0,88,60,31,0.00,40.00,10,5,24,0.00
2013-3-13,67.0,45.3,29.0,37.0,24.8,15.0,71,47,25,0.00,40.00,8,5,20,0.00
2013-3-14,71.0,48.1,32.0,47.0,33.7,24.0,93,63,23,0.00,40.00,8,5,18,0.00
2013-3-15,51.0,35.5,27.0,37.0,30.5,23.0,98,83,51,0.00,40.00,11,5,28,0.00
2013-3-16,27.0,22.3,17.0,23.0,16.8,10.0,88,79,62,0.00,40.00,10,6,18,0.00
2013-3-17,32.0,23.3,8.0,29.0,19.9,3.0,97,86,76,0.00,40.00,16,11,36,0.02
2013-3-18,29.0,16.0,2.0,15.0,6.5,-2.0,89,67,45,0.00,40.00,13,6,27,0.01
2013-3-19,30.0,20.9,13.0,23.0,10.6,3.0,95,67,34,0.00,40.00,9,5,20,0.00
2013-3-20,45.0,28.2,9.0,17.0,10.0,3.0,75,49,23,0.00,40.00,16,8,30,0.00
2013-3-21,32.0,26.4,21.0,26.0,15.5,8.0,97,64,48,0.00,40.00,16,8,29,0.00
2013-3-22,35.0,25.1,14.0,29.0,22.2,12.0,98,88,71,0.00,40.00,9,3,19,0.10
2013-3-23,27.0,17.3,9.0,15.0,10.9,7.0,93,77,56,0.00,40.00,10,5,22,0.07
2013-3-24,25.0,14.6,5.0,17.0,9.6,3.0,93,81,64,0.00,40.00,8,4,18,0.01
2013-3-25,33.0,18.2,2.0,19.0,10.6,-1.0,93,74,50,0.00,40.00,7,3,13,0.13
2013-3-26,43.0,30.4,18.0,26.0,19.2,13.0,82,64,44,0.00,40.00,8,5,15,0.04
2013-3-27,56.0,37.3,22.0,27.0,22.2,20.0,91,60,25,0.00,40.00,5,3,10,0.00
2013-3-28,61.0,51.8,39.0,32.0,30.0,28.0,77,46,30,0.00,40.00,7,4,13,0.00
2013-3-29,66.0,48.1,34.0,38.0,32.9,30.0,90,60,29,0.00,40.00,6,3,14,0.00
2013-3-30,60.0,44.2,33.0,37.0,31.7,-99.9,99,68,38,0.00,40.00,12,4,27,0.00
2013-3-31,35.0,30.7,21.0,28.0,23.5,16.0,94,75,52,0.00,40.00,9,4,18,0.00
2013-4-1,50.0,33.0,19.0,26.0,22.2,18.0,96,69,36,0.00,40.00,5,2,14,0.00
2013-4-2,60.0,42.4,24.0,27.0,24.5,22.0,90,54,26,0.00,40.00,8,4,21,0.00
2013-4-3,68.0,48.3,32.0,36.0,26.1,13.0,58,43,28,0.00,40.00,14,8,29,0.00
2013-4-4,51.0,37.3,30.0,34.0,27.1,13.0,85,67,44,0.00,40.00,11,6,20,0.00
2013-4-5,70.0,48.8,35.0,49.0,31.6,23.0,99,56,25,0.00,40.00,13,8,27,0.10
2013-4-6,59.0,48.7,38.0,47.0,40.1,35.0,99,75,48,0.00,40.00,9,5,19,0.11
2013-4-7,65.0,48.0,35.0,44.0,33.7,27.0,99,65,25,0.00,40.00,12,5,26,0.02
2013-4-8,35.0,25.9,14.0,32.0,21.7,10.0,98,84,69,0.00,40.00,13,10,24,0.04
2013-4-9,32.0,20.9,10.0,19.0,13.1,7.0,91,74,49,0.00,40.00,7,4,13,0.01
2013-4-10,41.0,29.7,14.0,23.0,18.5,12.0,95,66,39,0.00,40.00,6,3,14,0.00
2013-4-11,43.0,32.0,23.0,29.0,24.1,20.0,96,74,51,0.00,40.00,6,3,15,0.00
2013-4-12,40.0,32.0,25.0,35.0,29.7,25.0,98,91,74,0.00,40.00,6,2,14,0.00
2013-4-13,49.0,37.8,27.0,32.0,29.8,27.0,98,75,49,0.00,40.00,17,10,32,0.00
2013-4-14,33.0,27.3,24.0,31.0,24.9,23.0,98,91,78,0.00,40.00,12,9,23,0.13
2013-4-15,43.0,29.9,23.0,28.0,25.0,22.0,98,83,55,0.00,40.00,8,6,16,0.11
2013-4-16,37.0,29.3,23.0,27.0,23.2,20.0,98,80,54,0.00,40.00,5,3,11,0.03
2013-4-17,38.0,28.3,20.0,27.0,23.4,19.0,98,83,55,0.00,40.00,6,3,14,0.05
2013-4-18,47.0,31.4,13.0,32.0,20.5,12.0,98,68,36,0.00,40.00,6,3,16,0.01
2013-4-19,44.0,36.1,30.0,32.0,28.0,21.0,98,74,50,0.00,40.00,11,6,22,0.01
2013-4-20,57.0,39.7,29.0,43.0,32.2,18.0,98,76,55,0.00,40.00,12,7,24,0.25
2013-4-21,43.0,36.6,30.0,42.0,29.9,21.0,99,79,45,0.00,40.00,9,6,22,0.30
2013-4-22,39.0,29.9,23.0,24.0,16.2,8.0,86,60,30,0.00,40.00,8,5,16,0.01
2013-4-23,54.0,38.0,22.0,26.0,17.9,14.0,74,48,22,0.00,40.00,8,5,21,0.00
2013-4-24,46.0,37.2,30.0,32.0,25.2,21.0,98,64,37,0.00,40.00,12,6,31,0.03
2013-4-25,68.0,50.4,32.0,31.0,26.2,22.0,80,44,21,0.00,40.00,11,5,27,0.03
2013-4-26,78.0,57.5,37.0,33.0,28.8,25.0,67,38,16,0.00,40.00,8,4,20,0.00
2013-4-27,80.0,64.0,43.0,37.0,31.3,27.0,63,33,15,0.00,40.00,10,5,23,0.00
2013-4-28,66.0,59.0,45.0,37.0,30.3,24.0,57,35,20,0.00,40.00,9,5,21,0.00
2013-4-29,67.0,54.9,46.0,41.0,36.5,30.0,77,54,27,0.00,40.00,12,7,33,0.00
2013-4-30,46.0,38.3,26.0,29.0,23.9,19.0,79,56,46,0.00,40.00,13,8,28,0.00
2013-5-1,55.0,39.5,25.0,24.0,16.3,6.0,90,46,16,0.00,40.00,7,4,18,0.00
2013-5-2,63.0,46.4,32.0,22.0,15.9,10.0,48,31,16,0.00,40.00,6,4,17,0.00
2013-5-3,70.0,51.7,34.0,24.0,20.1,16.0,53,31,15,0.00,40.00,9,6,17,0.00
2013-5-4,65.0,53.4,40.0,22.0,18.3,15.0,37,26,17,0.00,40.00,8,5,17,0.00
2013-5-5,68.0,53.5,37.0,26.0,20.9,17.0,46,30,18,0.00,40.00,7,4,15,0.00
2013-5-6,75.0,59.6,43.0,28.0,25.2,22.0,48,29,15,0.00,40.00,7,4,16,0.00
2013-5-7,82.0,64.5,46.0,32.0,26.9,21.0,37,26,14,0.00,40.00,6,4,14,0.00
2013-5-8,75.0,59.9,45.0,44.0,37.7,27.0,77,46,31,0.00,40.00,11,6,19,0.00
2013-5-9,70.0,54.8,42.0,39.0,33.1,28.0,70,46,29,0.00,40.00,9,5,15,0.00
2013-5-10,71.0,54.4,41.0,47.0,28.4,-99.9,75,44,19,0.00,40.00,11,6,25,0.00
2013-5-11,68.0,51.0,32.0,25.0,20.4,-99.9,67,33,17,0.00,40.00,5,3,20,0.00
2013-5-12,86.0,64.0,42.0,45.0,30.2,16.0,49,29,18,0.00,40.00,8,5,17,0.00
2013-5-13,94.0,77.0,58.0,49.0,43.5,40.0,54,33,18,0.00,40.00,10,5,21,0.00
2013-5-14,75.0,66.5,55.0,55.0,39.1,31.0,97,41,22,0.00,40.00,17,8,33,0.00
2013-5-15,80.0,63.9,49.0,39.0,33.3,29.0,59,35,18,0.00,40.00,5,3,17,0.00
2013-5-16,65.0,53.2,52.0,52.0,31.6,-99.9,92,74,33,0.00,40.00,15,9,31,0.56
2013-5-17,75.0,59.8,53.0,57.0,47.9,-99.9,99,77,45,0.00,40.00,7,4,17,0.21
2013-5-18,78.0,62.8,51.0,59.0,54.9,51.0,99,79,41,0.00,40.00,7,3,20,0.29
2013-5-19,57.0,54.0,49.0,57.0,52.7,49.0,99,95,80,0.00,40.00,12,4,23,0.85
2013-5-20,52.0,49.0,47.0,51.0,48.8,47.0,99,98,94,0.00,40.00,0,0,0,1.43
2013-5-21,51.0,47.7,43.0,50.0,44.8,39.0,99,90,75,0.00,40.00,0,0,0,0.12
2013-5-22,67.0,56.5,46.0,47.0,39.5,29.0,98,59,26,0.00,40.00,0,0,0,0.01
2013-5-23,69.0,57.7,46.0,44.0,40.4,33.0,81,54,36,0.00,40.00,0,0,0,0.00
2013-5-24,78.0,62.7,54.0,51.0,43.3,31.0,78,54,19,0.00,40.00,0,0,0,0.00
2013-5-25,81.0,66.4,52.0,60.0,51.9,45.0,88,62,30,0.00,40.00,0,0,0,0.00
2013-5-26,76.0,66.4,55.0,62.0,56.6,54.0,99,73,50,0.00,40.00,0,0,0,0.16
2013-5-27,69.0,59.2,52.0,62.0,55.0,50.0,99,87,64,0.00,40.00,0,0,0,0.94
2013-5-28,77.0,62.1,46.0,56.0,51.8,46.0,99,73,40,0.00,40.00,0,0,0,0.47
2013-5-29,70.0,60.6,53.0,60.0,55.2,52.0,99,83,61,0.00,40.00,0,0,0,0.82
2013-5-30,57.0,54.0,50.0,57.0,54.0,50.0,99,99,98,0.00,40.00,0,0,120,1.85
2013-5-31,52.0,49.8,48.0,52.0,49.5,48.0,99,98,97,0.00,40.00,0,0,0,1.13
2013-6-1,69.0,54.6,40.0,49.0,40.7,-99.9,99,67,34,0.00,40.00,0,0,0,0.04
2013-6-2,73.0,59.0,42.0,48.0,43.2,38.0,88,59,36,0.00,40.00,0,0,0,0.00
2013-6-3,60.0,52.3,47.0,54.0,47.5,43.0,99,84,64,0.00,40.00,0,0,0,0.42
2013-6-4,51.0,47.7,44.0,48.0,45.4,43.0,99,91,79,0.00,40.00,0,0,0,0.09
2013-6-5,68.0,57.5,45.0,48.0,43.8,41.0,92,64,39,0.00,40.00,0,0,0,0.01
2013-6-6,78.0,62.2,44.0,51.0,46.6,43.0,97,61,36,0.00,40.00,0,0,0,0.00
2013-6-7,80.0,64.4,51.0,60.0,52.1,47.0,99,70,33,0.00,40.00,0,0,0,0.13
2013-6-8,71.0,61.6,52.0,60.0,53.2,46.0,99,77,44,0.00,40.00,0,0,0,0.36
2013-6-9,84.0,66.1,46.0,56.0,48.0,45.0,98,59,26,0.00,40.00,0,0,0,0.02
2013-6-10,79.0,69.6,54.0,58.0,52.2,47.0,96,57,34,0.00,40.00,0,0,0,0.00
2013-6-11,79.0,67.7,55.0,56.0,49.0,42.0,97,55,34,0.00,40.00,0,0,0,0.29
2013-6-12,73.0,63.5,55.0,57.0,54.9,53.0,99,75,53,0.00,40.00,7,1,14,0.29
2013-6-13,77.0,67.7,60.0,58.0,54.7,52.0,80,64,49,0.00,40.00,16,10,34,0.00
2013-6-14,75.0,65.2,55.0,60.0,51.7,43.0,99,65,36,0.00,40.00,13,6,28,0.03
2013-6-15,78.0,64.7,48.0,49.0,43.8,40.0,79,50,27,0.00,40.00,10,6,23,0.01
2013-6-16,77.0,64.7,48.0,50.0,47.6,43.0,84,56,37,0.00,40.00,9,5,22,0.00
2013-6-17,77.0,64.8,48.0,54.0,50.7,47.0,99,64,39,0.00,40.00,6,3,15,0.00
2013-6-18,84.0,70.2,53.0,60.0,54.7,49.0,88,61,36,0.00,40.00,11,7,22,0.00
2013-6-19,87.0,76.6,65.0,63.0,58.4,54.0,80,56,35,0.00,40.00,18,12,34,0.00
2013-6-20,79.0,68.2,58.0,63.0,58.9,49.0,97,75,37,0.00,40.00,15,7,33,0.00
2013-6-22,76.0,62.5,53.0,58.0,55.4,53.0,99,80,50,0.00,40.00,8,5,21,0.71
2013-6-23,78.0,64.3,51.0,56.0,51.1,45.0,99,68,32,0.00,40.00,8,4,19,0.53
2013-6-24,84.0,72.3,56.0,68.0,60.6,48.0,87,68,54,0.00,40.00,8,5,17,0.00
2013-6-25,83.0,71.7,63.0,66.0,60.1,54.0,99,70,38,0.00,40.00,8,4,20,0.00
2013-6-26,86.0,71.8,57.0,62.0,54.6,48.0,88,59,31,0.00,40.00,9,4,21,0.00
2013-6-27,84.0,71.4,56.0,56.0,51.6,45.0,89,54,29,0.00,40.00,10,5,23,0.00
2013-6-28,88.0,73.8,59.0,57.0,52.9,50.0,73,51,31,0.00,40.00,8,4,19,0.00
2013-6-29,85.0,71.9,53.0,55.0,52.2,48.0,91,54,31,0.00,40.00,8,4,19,0.00
2013-6-30,84.0,70.8,54.0,59.0,54.7,51.0,93,60,36,0.00,40.00,7,4,15,0.00
2013-7-1,87.0,75.2,62.0,60.0,56.5,53.0,80,55,32,0.00,40.00,8,6,19,0.00
2013-7-2,90.0,76.2,60.0,57.0,52.8,48.0,70,47,24,0.00,40.00,6,4,14,0.00
2013-7-3,97.0,79.3,60.0,67.0,53.3,48.0,72,44,24,0.00,40.00,7,4,15,0.00
2013-7-4,87.0,77.5,68.0,68.0,62.2,56.0,90,63,35,0.00,40.00,6,4,15,0.00
2013-7-5,92.0,74.9,64.0,68.0,61.2,57.0,99,66,31,0.00,40.00,9,4,33,0.39
2013-7-6,84.0,69.5,62.0,68.0,60.1,51.0,99,76,36,0.00,40.00,7,3,18,0.02
2013-7-7,81.0,68.5,59.0,64.0,58.3,51.0,98,72,44,0.00,40.00,9,4,19,0.20
2013-7-8,91.0,71.5,58.0,63.0,60.1,56.0,99,72,34,0.00,40.00,20,5,45,1.25
2013-7-9,78.0,68.1,56.0,63.0,58.6,56.0,100,75,48,0.00,40.00,9,4,24,0.63
2013-7-10,91.0,74.0,55.0,65.0,58.6,-99.9,99,64,37,0.00,40.00,7,4,21,0.00
2013-7-11,99.0,78.2,65.0,67.0,61.9,53.0,92,63,24,0.00,40.00,13,6,41,0.04
2013-7-12,91.0,76.8,67.0,65.0,57.5,47.0,82,55,24,0.00,40.00,6,3,13,0.04
2013-7-13,97.0,74.5,59.0,64.0,57.9,52.0,80,59,30,0.00,40.00,16,7,33,0.00
2013-7-14,72.0,62.6,53.0,57.0,53.6,51.0,96,74,47,0.00,40.00,11,6,18,0.00
2013-7-15,92.0,76.1,60.0,69.0,64.6,57.0,95,70,43,0.00,40.00,12,8,24,0.00
2013-7-16,79.0,72.8,61.0,61.0,58.2,56.0,84,61,51,0.00,40.00,10,8,21,0.00
2013-7-17,87.0,72.1,61.0,69.0,62.3,54.0,90,73,51,0.00,40.00,8,5,14,0.00
2013-7-18,92.0,81.0,65.0,69.0,57.4,43.0,99,51,25,0.00,40.00,10,5,21,0.00
2013-7-19,92.0,76.2,57.0,60.0,54.0,49.0,95,52,25,0.00,40.00,5,2,12,0.00
2013-7-20,83.0,71.6,60.0,62.0,55.1,-99.9,82,59,41,0.00,40.00,11,7,21,0.00
2013-7-21,97.0,77.4,62.0,64.0,56.5,47.0,93,55,20,0.00,40.00,11,7,25,0.00
2013-7-22,84.0,70.5,55.0,57.0,55.2,53.0,98,62,38,0.00,40.00,11,4,26,0.00
2013-7-23,86.0,70.8,56.0,62.0,58.3,53.0,99,69,37,0.00,40.00,9,3,24,0.24
2013-7-24,88.0,72.5,56.0,61.0,54.1,46.0,99,61,24,0.00,40.00,14,4,29,0.12
2013-7-25,75.0,67.1,53.0,60.0,53.6,43.0,94,64,35,0.00,40.00,14,6,24,0.12
2013-7-26,73.0,58.6,46.0,50.0,46.3,43.0,99,67,38,0.00,40.00,8,4,16,0.00
2013-7-27,79.0,64.7,49.0,47.0,44.0,41.0,75,49,31,0.00,40.00,13,9,26,0.00
2013-7-28,81.0,66.1,57.0,59.0,48.6,38.0,81,54,38,0.00,40.00,12,8,25,0.36
2013-7-29,78.0,66.5,56.0,61.0,54.7,49.0,97,68,38,0.00,40.00,11,4,29,0.40
2013-7-30,79.0,67.3,56.0,62.0,57.2,53.0,98,72,50,0.00,40.00,12,3,24,0.24
2013-7-31,86.0,70.3,54.0,56.0,50.8,45.0,87,55,28,0.00,40.00,6,3,16,0.19
2013-8-1,85.0,70.0,57.0,53.0,48.5,42.0,70,49,29,0.00,40.00,12,5,21,0.00
2013-8-2,74.0,65.1,57.0,59.0,56.4,52.0,99,75,55,0.00,40.00,11,5,21,0.11
2013-8-3,83.0,69.0,55.0,61.0,57.2,55.0,99,70,41,0.00,40.00,11,6,25,0.55
2013-8-4,82.0,66.4,55.0,64.0,58.5,52.0,99,79,41,0.00,40.00,6,3,13,0.55
2013-8-5,89.0,68.8,54.0,60.0,55.8,52.0,99,72,29,0.00,40.00,6,2,13,0.21
2013-8-6,83.0,68.1,56.0,60.0,55.4,49.0,98,68,33,0.00,40.00,11,6,23,0.21
2013-8-7,77.0,63.5,54.0,56.0,52.6,46.0,99,72,43,0.00,40.00,10,4,19,0.00
2013-8-8,81.0,66.0,50.0,53.0,48.6,47.0,91,58,31,0.00,40.00,6,3,15,0.00
2013-8-9,79.0,65.7,52.0,54.0,50.2,47.0,90,60,36,0.00,40.00,7,4,15,0.00
2013-8-10,82.0,68.7,56.0,60.0,55.4,47.0,93,65,46,0.00,40.00,8,5,15,0.14
2013-8-11,83.0,66.9,52.0,62.0,57.6,52.0,99,76,46,0.00,40.00,7,4,18,0.14
2013-8-12,84.0,71.5,57.0,63.0,58.8,56.0,99,68,40,0.00,40.00,8,4,15,0.00
2013-8-13,81.0,69.1,59.0,64.0,57.8,-99.9,96,70,45,0.00,40.00,9,5,19,0.06
2013-8-14,83.0,65.8,58.0,62.0,56.6,-99.9,99,78,39,0.00,40.00,6,3,28,0.17
2013-8-15,90.0,66.0,56.0,64.0,46.6,-99.9,99,67,29,0.00,40.00,3,2,10,0.18
2013-8-16,93.0,75.0,59.0,63.0,59.3,54.0,98,64,29,0.00,40.00,7,5,15,0.01
2013-8-17,97.0,76.3,61.0,63.0,56.2,-99.9,96,58,21,0.00,40.00,10,4,21,0.00
2013-8-18,89.0,74.5,62.0,60.0,55.1,48.0,88,56,25,0.00,40.00,10,4,24,0.00
2013-8-19,99.0,73.9,60.0,62.0,40.7,-99.9,86,47,15,0.00,40.00,6,3,16,0.00
2013-8-20,95.0,78.1,59.0,56.0,45.9,-99.9,80,38,17,0.00,40.00,9,4,19,0.00
2013-8-21,87.0,74.9,62.0,61.0,55.0,48.0,81,52,36,0.00,40.00,11,6,19,0.00
2013-8-22,87.0,73.7,61.0,60.0,53.4,44.0,68,50,37,0.00,40.00,12,8,25,0.00
2013-8-23,100.0,81.4,66.0,65.0,60.4,54.0,85,54,22,0.00,40.00,9,5,19,0.00
2013-8-24,95.0,78.8,69.0,64.0,54.3,-99.9,66,46,24,0.00,40.00,8,4,20,0.00
2013-8-25,96.0,75.0,60.0,58.0,54.1,51.0,73,52,23,0.00,40.00,6,3,16,0.00
2013-8-26,99.0,83.9,70.0,62.0,56.8,50.0,71,43,22,0.00,40.00,6,4,18,0.00
2013-8-27,79.0,73.7,68.0,67.0,63.7,61.0,90,71,58,0.00,40.00,13,4,25,0.10
2013-8-28,95.0,86.8,71.0,69.0,64.7,60.0,85,50,33,0.00,40.00,9,6,34,0.10
2013-8-29,94.0,76.6,61.0,69.0,62.6,57.0,99,67,31,0.00,40.00,5,3,26,0.13
2013-8-30,99.0,80.6,65.0,63.0,57.0,50.0,81,49,23,0.00,40.00,6,3,15,0.00
2013-8-31,83.0,72.0,59.0,54.0,45.2,-99.9,65,42,22,0.00,40.00,11,6,26,0.00
2013-9-1,84.0,68.1,50.0,57.0,50.0,45.0,99,58,28,0.00,40.00,6,3,13,0.00
2013-9-2,98.0,75.2,59.0,55.0,48.8,35.0,79,49,11,0.00,40.00,7,5,16,0.00
2013-9-3,99.0,80.7,71.0,60.0,54.7,51.0,60,44,23,0.00,40.00,9,3,16,0.00
2013-9-4,94.0,79.5,68.0,63.0,59.3,55.0,69,52,29,0.00,40.00,10,6,19,0.00
2013-9-5,100.0,83.0,69.0,65.0,61.1,56.0,85,52,26,0.00,40.00,7,4,18,0.00
2013-9-6,98.0,83.6,68.0,67.0,60.6,54.0,94,50,23,0.00,40.00,6,4,19,0.07
2013-9-7,81.0,70.0,62.0,70.0,62.7,-99.9,99,80,58,0.00,40.00,10,4,20,0.11
2013-9-8,80.0,67.6,59.0,68.0,63.9,59.0,99,89,64,0.00,40.00,6,3,14,0.12
2013-9-9,78.0,65.5,55.0,64.0,55.0,49.0,99,74,37,0.00,40.00,10,5,26,0.24
2013-9-10,86.0,69.3,54.0,59.0,51.7,46.0,99,61,25,0.00,40.00,6,3,15,0.00
2013-9-11,86.0,70.0,56.0,55.0,48.5,43.0,78,51,26,0.00,40.00,8,3,16,0.00
2013-9-12,83.0,66.8,50.0,52.0,46.6,43.0,79,52,28,0.00,40.00,7,3,17,0.00
2013-9-13,87.0,72.2,59.0,60.0,53.0,48.0,75,53,31,0.00,40.00,12,8,25,0.00
2013-9-14,79.0,66.7,59.0,68.0,59.4,-99.9,99,80,59,0.00,40.00,10,4,23,0.10
2013-9-15,71.0,59.3,47.0,54.0,47.6,43.0,99,68,42,0.00,40.00,9,5,21,0.01
2013-9-16,81.0,65.1,52.0,55.0,51.8,48.0,92,65,39,0.00,40.00,12,9,24,0.00
2013-9-17,95.0,72.3,56.0,59.0,54.4,52.0,99,61,24,0.00,40.00,7,4,22,0.63
2013-9-18,60.0,58.2,52.0,59.0,56.1,47.0,99,93,69,0.00,40.00,7,4,16,0.63
2013-9-19,54.0,49.7,44.0,47.0,42.9,40.0,90,78,67,0.00,40.00,9,6,24,0.00
2013-9-20,75.0,53.0,33.0,44.0,38.6,33.0,99,66,27,0.00,40.00,4,2,10,0.00
2013-9-21,82.0,66.8,50.0,45.0,39.5,-99.9,64,40,25,0.00,40.00,11,6,22,0.00
2013-9-22,82.0,65.3,54.0,54.0,50.4,48.0,85,61,36,0.00,40.00,7,3,17,0.00
2013-9-23,72.0,60.1,52.0,56.0,45.7,30.0,93,63,30,0.00,40.00,8,4,17,0.06
2013-9-24,79.0,60.9,41.0,41.0,35.7,31.0,77,44,22,0.00,40.00,16,4,27,0.03
2013-9-25,68.0,57.7,47.0,49.0,44.9,40.0,99,65,41,0.00,40.00,16,6,32,0.20
2013-9-26,55.0,48.9,44.0,49.0,44.8,39.0,99,86,62,0.00,40.00,11,5,24,0.20
2013-9-27,54.0,46.6,41.0,44.0,38.4,31.0,97,75,42,0.00,40.00,5,3,14,0.01
2013-9-28,68.0,49.5,34.0,40.0,35.4,-99.9,98,66,30,0.00,40.00,10,4,27,0.00
2013-9-29,81.0,61.1,50.0,43.0,38.1,33.0,63,45,21,0.00,40.00,11,6,26,0.00
2013-9-30,76.0,54.0,46.0,49.0,39.8,34.0,90,61,29,0.00,40.00,12,5,37,0.02
2013-10-1,65.0,54.6,48.0,31.0,28.7,26.0,50,38,23,0.00,40.00,5,3,17,0.00
2013-10-2,66.0,54.7,43.0,37.0,29.4,26.0,61,40,23,0.00,40.00,8,3,19,0.00
2013-10-3,52.0,48.1,44.0,40.0,34.3,26.0,72,59,42,0.00,40.00,12,6,21,0.00
2013-10-4,44.0,38.3,34.0,38.0,33.4,26.0,97,83,67,0.00,40.00,10,7,19,0.01
2013-10-5,57.0,40.5,26.0,28.0,25.0,22.0,90,58,28,0.00,40.00,10,5,20,0.01
2013-10-6,76.0,54.2,36.0,39.0,34.4,26.0,79,51,25,0.00,40.00,9,4,20,0.00
2013-10-7,80.0,57.1,39.0,41.0,36.7,28.0,91,54,15,0.00,40.00,9,4,19,0.00
2013-10-8,69.0,56.1,47.0,42.0,33.1,27.0,80,45,24,0.00,40.00,6,3,16,0.00
2013-10-9,69.0,53.2,39.0,35.0,30.6,28.0,70,45,23,0.00,40.00,4,2,10,0.00
2013-10-10,67.0,55.5,39.0,52.0,41.7,33.0,95,62,40,0.00,40.00,8,3,18,0.00
2013-10-11,52.0,46.5,42.0,51.0,39.4,25.0,99,79,43,0.00,40.00,10,7,31,0.29
2013-10-12,58.0,43.8,32.0,32.0,23.7,-99.9,84,50,25,0.00,40.00,8,4,18,0.01
2013-10-13,58.0,43.2,32.0,40.0,29.1,21.0,93,59,34,0.00,40.00,12,5,22,0.00
2013-10-14,42.0,37.9,35.0,41.0,36.9,33.0,99,97,93,0.00,40.00,13,10,28,0.42
2013-10-15,56.0,40.4,30.0,35.0,30.0,26.0,98,71,33,0.00,40.00,5,3,14,0.03
2013-10-16,58.0,42.3,31.0,38.0,31.3,28.0,98,68,41,0.00,40.00,10,4,23,0.15
2013-10-17,50.0,39.1,32.0,36.0,30.4,22.0,98,74,38,0.00,40.00,7,4,20,0.20
2013-10-18,49.0,40.4,34.0,39.0,33.8,31.0,98,79,56,0.00,40.00,8,4,20,0.05
2013-10-19,65.0,48.2,37.0,37.0,32.1,-99.9,83,58,32,0.00,40.00,10,5,24,0.00
2013-10-20,50.0,40.3,33.0,37.0,30.7,23.0,91,69,47,0.00,40.00,12,7,28,0.00
2013-10-21,52.0,43.5,35.0,46.0,40.3,34.0,99,89,69,0.00,40.00,7,3,16,0.11
2013-10-22,52.0,44.7,35.0,44.0,38.5,34.0,99,80,58,0.00,40.00,7,3,18,0.02
2013-10-23,48.0,40.1,30.0,42.0,35.8,29.0,98,85,64,0.00,40.00,8,3,16,0.00
2013-10-24,54.0,36.8,26.0,34.0,29.8,26.0,98,78,41,0.00,40.00,5,2,10,0.00
2013-10-25,65.0,47.9,35.0,43.0,34.0,22.0,98,63,30,0.00,40.00,9,5,21,0.00
2013-10-26,64.0,43.4,26.0,36.0,24.8,-99.9,81,52,25,0.00,40.00,6,3,14,0.00
2013-10-27,57.0,40.7,32.0,38.0,32.2,26.0,97,74,42,0.00,40.00,13,7,24,0.00
2013-10-28,33.0,27.3,25.0,27.0,23.2,19.0,95,85,76,0.00,40.00,10,8,21,0.00
2013-10-29,34.0,29.3,26.0,30.0,26.0,23.0,96,88,79,0.00,40.00,7,4,14,0.07
2013-10-30,53.0,36.1,30.0,35.0,31.0,29.0,98,84,51,0.00,40.00,6,4,12,0.02
2013-10-31,58.0,40.4,31.0,39.0,32.6,29.0,96,77,41,0.00,40.00,8,6,23,0.00
2013-11-1,55.0,43.2,36.0,37.0,29.8,24.0,93,61,34,0.00,40.00,14,8,30,0.00
2013-11-2,54.0,40.6,28.0,32.0,26.4,-99.9,88,62,38,0.00,40.00,9,4,18,0.00
2013-11-3,56.0,40.9,31.0,38.0,27.0,19.0,89,62,28,0.00,40.00,9,5,23,0.00
2013-11-4,40.0,31.6,20.0,24.0,17.7,11.0,82,58,33,0.00,40.00,11,7,23,0.00
2013-11-5,45.0,27.4,15.0,22.0,17.0,13.0,91,68,35,0.00,40.00,7,3,16,0.00
2013-11-6,45.0,30.7,19.0,26.0,20.7,17.0,97,70,40,0.00,40.00,8,3,21,0.00
2013-11-7,51.0,36.8,25.0,28.0,23.5,19.0,92,63,34,0.00,40.00,9,4,22,0.00
2013-11-8,52.0,40.5,33.0,41.0,33.2,28.0,99,77,45,0.00,40.00,11,7,27,0.26
2013-11-9,43.0,33.5,27.0,33.0,25.0,-99.9,97,75,50,0.00,40.00,8,4,21,0.01
2013-11-10,36.0,28.2,16.0,28.0,22.8,13.0,93,80,68,0.00,40.00,9,6,18,0.00
2013-11-11,33.0,19.3,10.0,19.0,14.0,8.0,93,81,56,0.00,40.00,6,3,13,0.09
2013-11-12,55.0,37.0,16.0,37.0,28.5,14.0,98,75,44,0.00,40.00,7,4,15,0.01
2013-11-13,59.0,46.3,39.0,37.0,33.7,30.0,78,62,41,0.00,40.00,6,4,16,0.01
2013-11-14,55.0,39.9,30.0,31.0,28.7,26.0,88,67,37,0.00,40.00,8,4,21,0.00
2013-11-15,54.0,37.5,29.0,29.0,24.5,21.0,90,63,30,0.00,40.00,6,3,17,0.00
2013-11-16,41.0,34.4,29.0,38.0,28.7,-99.9,98,83,55,0.00,40.00,6,2,13,0.02
2013-11-17,40.0,30.5,23.0,32.0,27.7,23.0,98,90,59,0.00,40.00,6,4,17,0.02
2013-11-18,56.0,34.0,21.0,26.0,23.0,21.0,98,69,25,0.00,40.00,8,3,15,0.01
2013-11-19,55.0,39.1,25.0,31.0,27.3,21.0,85,64,35,0.00,40.00,11,4,22,0.00
2013-11-20,25.0,14.8,3.0,21.0,10.0,-1.0,88,81,73,0.00,40.00,11,6,22,0.00
2013-11-21,21.0,7.0,-4.0,7.0,0.5,-8.0,86,75,52,0.00,40.00,6,3,14,0.00
2013-11-22,24.0,14.5,6.0,12.0,7.1,2.0,86,73,51,0.00,40.00,8,3,15,0.00
2013-11-23,39.0,20.8,7.0,21.0,11.1,-99.9,91,71,39,0.00,40.00,6,3,14,0.01
2013-11-24,44.0,34.1,28.0,27.0,20.9,15.0,82,59,35,0.00,40.00,8,4,17,0.01
2013-11-25,38.0,29.1,22.0,26.0,21.2,17.0,92,73,45,0.00,40.00,8,4,20,0.00
2013-11-26,34.0,24.8,12.0,19.0,14.6,11.0,96,68,39,0.00,40.00,6,3,16,0.00
2013-11-27,39.0,30.7,19.0,27.0,22.6,17.0,97,72,58,0.00,40.00,9,5,20,0.00
2013-11-28,32.0,24.4,19.0,26.0,22.6,18.0,98,93,77,0.00,40.00,10,4,18,0.00
2013-11-29,52.0,33.0,21.0,28.0,24.8,20.0,97,76,38,0.00,40.00,8,3,18,0.00
2013-11-30,39.0,33.1,29.0,33.0,28.1,-99.9,97,85,70,0.00,40.00,4,1,6,0.01
2013-12-1,49.0,38.8,32.0,39.0,31.8,28.0,99,78,45,0.00,40.00,7,3,15,0.04
2013-12-2,45.0,34.6,21.0,39.0,32.7,20.0,99,93,78,0.00,40.00,11,5,19,0.05
2013-12-3,21.0,12.9,6.0,20.0,10.4,3.0,95,89,83,0.00,40.00,11,7,19,0.00
2013-12-4,7.0,3.3,-4.0,3.0,-1.0,-8.0,87,82,73,0.00,40.00,9,6,21,0.00
2013-12-5,1.0,-9.1,-17.0,-8.0,-14.9,-21.0,82,75,58,0.00,40.00,6,4,16,0.00
2013-12-6,-6.0,-16.3,-24.0,-13.0,-21.8,-29.0,81,75,61,0.00,40.00,7,3,13,0.00
2013-12-7,-6.0,-19.1,-29.0,-17.0,-26.4,-99.9,78,71,56,0.00,40.00,4,2,10,0.00
2013-12-8,1.0,-10.7,-22.0,-7.0,-16.4,-27.0,84,76,60,0.00,40.00,8,3,17,0.00
2013-12-9,24.0,3.7,-11.0,21.0,-0.7,-15.0,92,81,71,0.00,40.00,15,8,31,0.00
2013-12-10,22.0,9.8,-7.0,18.0,5.3,-12.0,92,81,69,0.00,40.00,8,4,23,0.00
2013-12-11,23.0,7.0,-15.0,16.0,1.1,-19.0,85,77,61,0.00,40.00,7,4,16,0.00
2013-12-12,36.0,27.2,20.0,23.0,19.2,15.0,81,72,53,0.00,40.00,7,3,14,0.12
2013-12-13,24.0,13.3,4.0,19.0,9.8,1.0,94,86,73,0.00,40.00,4,1,8,0.02
2013-12-14,35.0,17.7,3.0,30.0,12.4,-99.9,91,83,66,0.00,40.00,6,2,12,0.00
2013-12-15,49.0,39.5,34.0,31.0,29.7,28.0,82,69,48,0.00,40.00,7,6,17,0.12
2013-12-16,39.0,31.8,23.0,32.0,30.0,23.0,98,93,67,0.00,40.00,9,4,24,0.05
2013-12-17,37.0,26.2,17.0,27.0,21.9,13.0,98,84,56,0.00,40.00,8,4,15,0.02
2013-12-18,48.0,32.4,8.0,30.0,24.1,4.0,90,72,46,0.00,40.00,11,6,19,0.02
2013-12-19,9.0,0.6,-14.0,4.0,-3.6,-18.0,87,82,67,0.00,40.00,11,5,19,0.00
2013-12-20,11.0,-2.1,-14.0,6.0,-5.6,-18.0,91,85,78,0.00,40.00,4,2,9,0.00
2013-12-21,15.0,8.1,-3.0,10.0,3.7,-99.9,90,85,78,0.00,40.00,6,2,13,0.00
2013-12-22,8.0,-1.0,-13.0,1.0,-5.5,-17.0,87,81,60,0.00,40.00,5,2,11,0.00
2013-12-23,27.0,-6.7,-18.0,20.0,-11.5,-23.0,82,79,71,0.00,40.00,9,3,19,0.00
2013-12-24,36.0,31.8,27.0,32.0,28.1,23.0,98,87,67,0.00,40.00,12,6,26,0.19
2013-12-25,36.0,29.2,22.0,26.0,22.0,17.0,86,75,58,0.00,40.00,9,4,21,0.02
2013-12-26,43.0,34.3,27.0,29.0,25.6,21.0,84,71,52,0.00,40.00,9,5,16,0.01
2013-12-27,50.0,36.6,33.0,32.0,22.2,-99.9,81,70,48,0.00,40.00,8,5,15,0.01
2013-12-28,41.0,17.4,-2.0,33.0,9.1,-99.9,83,72,62,0.00,40.00,14,6,34,0.00
2013-12-29,27.0,10.6,0.0,27.0,5.4,-4.0,98,79,64,0.00,40.00,6,3,12,0.00
2013-12-30,29.0,20.9,15.0,27.0,16.5,10.0,98,83,67,0.00,40.00,10,4,24,0.00
2013-12-31,15.0,10.4,8.0,12.0,6.1,2.0,90,83,75,0.00,40.00,8,5,17,0.00
2014-1-1,16.0,11.2,8.0,14.0,6.7,0.0,93,83,60,0.00,40.00,7,3,15,0.00
2014-1-2,32.0,22.4,15.0,23.0,18.4,13.0,98,85,68,0.00,40.00,7,4,15,0.10